Time;durP1;ratioP1;P1;durP2;ratioP2;P2;SDS_P1;SDS_P2;PMS_P1;PMS_P2;Temp;Humidity;BMP_temperature;BMP_pressure;BME280_temperature;BME280_humidity;BME280_pressure;Samples;Min_cycle;Max_cycle;Signal;HPM_P1;HPM_P2
2023/09/28 00:02:53;;;;;;;9.73;3.33;;;39.30;22.60;;;;;;5048144;28;20155;-57
2023/09/28 00:05:20;;;;;;;15.32;3.40;;;39.30;23.20;;;;;;5047696;28;20448;-55
2023/09/28 00:07:47;;;;;;;24.27;4.22;;;39.20;23.60;;;;;;5046661;28;20013;-55
2023/09/28 00:10:16;;;;;;;14.35;3.78;;;39.10;24.10;;;;;;5046837;28;20056;-57
2023/09/28 00:12:47;;;;;;;20.75;4.75;;;39.10;23.80;;;;;;5047786;28;20017;-57
2023/09/28 00:15:14;;;;;;;25.83;5.13;;;39.00;23.60;;;;;;5046765;28;20025;-58
2023/09/28 00:17:41;;;;;;;21.23;6.57;;;38.80;23.70;;;;;;5053423;28;20044;-57
2023/09/28 00:20:18;;;;;;;19.35;4.13;;;38.70;23.60;;;;;;5051808;28;20029;-58
2023/09/28 00:22:46;;;;;;;18.35;4.20;;;38.60;23.10;;;;;;5052013;28;20108;-57
2023/09/28 00:25:16;;;;;;;19.35;5.45;;;38.60;23.50;;;;;;5046286;28;20131;-59
2023/09/28 00:27:45;;;;;;;15.15;3.90;;;38.50;24.00;;;;;;5048215;28;20376;-57
2023/09/28 00:30:14;;;;;;;19.42;4.22;;;38.50;24.10;;;;;;5046611;28;20017;-56
2023/09/28 00:32:43;;;;;;;19.50;4.40;;;38.40;24.00;;;;;;5046561;28;20013;-56
2023/09/28 00:35:10;;;;;;;27.42;5.65;;;38.40;23.50;;;;;;5046754;28;20088;-55
2023/09/28 00:37:36;;;;;;;14.68;4.28;;;38.30;23.40;;;;;;5046373;28;20101;-57
2023/09/28 00:40:18;;;;;;;24.83;4.10;;;38.30;23.30;;;;;;5050887;28;20112;-58
2023/09/28 00:42:50;;;;;;;16.60;4.22;;;38.30;23.60;;;;;;5048717;28;20019;-55
2023/09/28 00:45:17;;;;;;;21.52;4.10;;;38.20;23.40;;;;;;5048022;28;20009;-59
2023/09/28 00:47:45;;;;;;;23.83;4.00;;;38.20;23.20;;;;;;5049366;28;20023;-58
2023/09/28 00:50:16;;;;;;;15.55;3.92;;;38.20;23.60;;;;;;5028249;28;20049;-58
2023/09/28 00:52:52;;;;;;;26.25;4.43;;;38.10;24.00;;;;;;5051594;28;20020;-58
2023/09/28 00:55:20;;;;;;;20.50;3.70;;;38.00;23.60;;;;;;5049385;28;20036;-59
2023/09/28 00:57:47;;;;;;;21.95;3.78;;;38.00;23.40;;;;;;5045285;28;20070;-59
2023/09/28 01:03:11;;;;;;;;;;;37.90;22.90;;;;;;4990101;28;20025;-58
2023/09/28 01:05:40;;;;;;;;;;;37.80;22.90;;;;;;4990367;28;19995;-59
2023/09/28 01:08:19;;;;;;;13.43;3.92;;;37.80;23.70;;;;;;4993709;28;20614;-59
2023/09/28 01:10:46;;;;;;;20.38;3.60;;;37.70;23.40;;;;;;4986029;28;20018;-59
2023/09/28 01:13:20;;;;;;;22.52;5.15;;;37.60;23.50;;;;;;4985010;28;20089;-59
2023/09/28 01:15:48;;;;;;;34.22;5.35;;;37.60;23.30;;;;;;4988623;28;20077;-61
2023/09/28 01:18:17;;;;;;;21.42;4.47;;;37.50;23.80;;;;;;4985922;28;20162;-59
2023/09/28 01:20:48;;;;;;;21.98;4.50;;;37.40;23.40;;;;;;4985805;28;20040;-59
2023/09/28 01:23:15;;;;;;;20.83;4.40;;;37.30;23.80;;;;;;4983633;28;20058;-59
2023/09/28 01:25:45;;;;;;;27.30;4.65;;;37.30;24.30;;;;;;4985695;28;20545;-59
2023/09/28 01:28:11;;;;;;;30.50;5.03;;;37.10;23.80;;;;;;4985675;28;20034;-60
2023/09/28 01:30:38;;;;;;;24.67;5.25;;;37.10;24.20;;;;;;4984138;28;20114;-59
2023/09/28 01:33:04;;;;;;;29.17;5.03;;;37.00;23.90;;;;;;4986079;28;20490;-60
2023/09/28 01:35:31;;;;;;;21.83;4.35;;;36.90;23.80;;;;;;4985570;28;20089;-62
2023/09/28 01:38:09;;;;;;;36.72;4.82;;;37.50;23.70;;;;;;4985174;28;20037;-60
2023/09/28 01:40:37;;;;;;;56.08;6.22;;;37.90;23.80;;;;;;5043301;28;20040;-62
2023/09/28 01:43:03;;;;;;;46.22;6.95;;;38.20;23.20;;;;;;5049388;28;20024;-60
2023/09/28 01:45:30;;;;;;;40.42;6.35;;;38.50;23.80;;;;;;5045473;28;20028;-61
2023/09/28 01:47:56;;;;;;;38.35;6.07;;;38.60;23.70;;;;;;5046844;28;20017;-60
2023/09/28 01:50:23;;;;;;;40.55;6.45;;;38.70;23.80;;;;;;5046361;28;20105;-60
2023/09/28 01:52:49;;;;;;;36.75;7.43;;;38.70;23.90;;;;;;5046974;28;20489;-60
2023/09/28 01:55:16;;;;;;;55.08;8.05;;;38.60;23.70;;;;;;5046672;28;20017;-61
2023/09/28 01:57:42;;;;;;;30.77;6.20;;;38.30;24.20;;;;;;5046947;28;20052;-62
2023/09/28 02:00:20;;;;;;;32.90;6.43;;;38.20;23.80;;;;;;5045785;28;20044;-60
2023/09/28 02:02:53;;;;;;;38.58;5.25;;;38.00;23.80;;;;;;5046299;28;20037;-56
2023/09/28 02:05:23;;;;;;;29.48;5.35;;;37.90;23.70;;;;;;5012485;28;20030;-60
2023/09/28 02:07:50;;;;;;;25.13;4.93;;;37.60;23.60;;;;;;5008403;28;20006;-61
2023/09/28 02:10:17;;;;;;;33.33;5.88;;;37.50;23.80;;;;;;5011976;28;20018;-63
2023/09/28 02:12:44;;;;;;;41.50;5.70;;;37.40;23.80;;;;;;5006403;28;20052;-60
2023/09/28 02:15:14;;;;;;;36.00;6.13;;;37.30;23.60;;;;;;5006138;28;20360;-60
2023/09/28 02:17:42;;;;;;;53.42;7.65;;;37.10;24.00;;;;;;5007498;28;20380;-60
2023/09/28 02:20:09;;;;;;;48.15;7.25;;;37.00;24.00;;;;;;5004979;28;20026;-60
2023/09/28 02:22:44;;;;;;;46.90;7.45;;;36.80;23.70;;;;;;5006800;28;20068;-60
2023/09/28 02:25:21;;;;;;;44.05;7.55;;;36.80;23.80;;;;;;5005898;28;20433;-60
2023/09/28 02:27:49;;;;;;;37.58;6.30;;;36.70;24.10;;;;;;5006157;28;20417;-59
2023/09/28 02:30:19;;;;;;;18.58;4.85;;;36.60;24.40;;;;;;5007122;28;20382;-64
2023/09/28 02:32:46;;;;;;;36.28;5.80;;;36.50;24.00;;;;;;5007754;28;20036;-55
2023/09/28 02:35:14;;;;;;;52.97;6.90;;;36.30;24.00;;;;;;5005065;28;20026;-57
2023/09/28 02:37:42;;;;;;;33.20;6.43;;;36.20;24.60;;;;;;5005115;28;20029;-60
2023/09/28 02:40:10;;;;;;;42.35;7.72;;;36.00;24.70;;;;;;5006364;28;20026;-60
2023/09/28 02:42:37;;;;;;;63.20;7.60;;;35.90;24.60;;;;;;5008739;28;20014;-61
2023/09/28 02:45:11;;;;;;;63.33;7.95;;;35.70;25.50;;;;;;5008814;28;20018;-58
2023/09/28 02:47:48;;;;;;;42.28;6.15;;;35.60;24.90;;;;;;5008232;28;20063;-61
2023/09/28 02:50:16;;;;;;;34.38;5.03;;;35.50;24.70;;;;;;5006111;28;20010;-61
2023/09/28 02:52:47;;;;;;;48.80;5.93;;;35.60;24.80;;;;;;5007021;28;20030;-60
2023/09/28 02:55:14;;;;;;;32.63;5.68;;;35.40;24.30;;;;;;5014451;28;20017;-62
2023/09/28 02:57:41;;;;;;;34.53;5.00;;;35.40;24.80;;;;;;5010274;28;20963;-61
2023/09/28 03:02:56;;;;;;;31.10;5.40;;;35.20;25.10;;;;;;5010265;28;20072;-61
2023/09/28 03:05:23;;;;;;;40.65;6.18;;;35.10;25.20;;;;;;5041376;28;20025;-63
2023/09/28 03:07:50;;;;;;;38.85;5.57;;;35.10;25.60;;;;;;5046419;28;20100;-60
2023/09/28 03:10:17;;;;;;;36.17;5.95;;;35.00;25.80;;;;;;5050193;28;20074;-60
2023/09/28 03:12:47;;;;;;;40.70;6.05;;;34.90;25.90;;;;;;5048945;28;20013;-60
2023/09/28 03:15:16;;;;;;;40.65;5.65;;;34.80;26.50;;;;;;5049066;28;20013;-62
2023/09/28 03:17:42;;;;;;;46.97;6.68;;;34.70;26.30;;;;;;5048273;28;20397;-61
2023/09/28 03:20:17;;;;;;;49.42;7.10;;;34.60;26.50;;;;;;5049401;28;20060;-62
2023/09/28 03:22:45;;;;;;;50.05;6.95;;;34.50;26.90;;;;;;5047745;28;20082;-61
2023/09/28 03:25:17;;;;;;;49.83;6.25;;;34.50;26.80;;;;;;5056516;28;20023;-62
2023/09/28 03:27:52;;;;;;;42.53;6.13;;;34.40;26.70;;;;;;5049281;28;20013;-62
2023/09/28 03:30:21;;;;;;;39.08;6.00;;;34.30;27.00;;;;;;5048626;28;20017;-60
2023/09/28 03:32:47;;;;;;;32.97;5.90;;;34.30;27.30;;;;;;5052477;28;20078;-61
2023/09/28 03:35:16;;;;;;;38.50;5.60;;;34.20;27.40;;;;;;5051963;28;20135;-59
2023/09/28 03:37:43;;;;;;;29.08;5.07;;;34.10;27.30;;;;;;5047915;28;20013;-62
2023/09/28 03:40:11;;;;;;;32.10;5.78;;;33.90;27.70;;;;;;5053531;28;20028;-60
2023/09/28 03:42:46;;;;;;;51.65;6.28;;;33.90;27.70;;;;;;5060290;28;20021;-59
2023/09/28 03:45:14;;;;;;;29.02;5.43;;;33.80;27.90;;;;;;5045150;28;20075;-61
2023/09/28 03:47:43;;;;;;;34.33;5.82;;;33.70;28.10;;;;;;5053711;28;20017;-61
2023/09/28 03:50:11;;;;;;;41.58;6.15;;;33.60;28.20;;;;;;5053204;28;20017;-61
2023/09/28 03:52:38;;;;;;;28.25;5.60;;;33.60;28.50;;;;;;5048491;28;20564;-60
2023/09/28 03:55:09;;;;;;;42.10;6.28;;;33.40;28.70;;;;;;5049010;28;20025;-59
2023/09/28 03:57:36;;;;;;;38.53;6.07;;;33.40;28.80;;;;;;5047752;28;20099;-61
2023/09/28 04:00:04;;;;;;;29.80;6.05;;;33.30;28.80;;;;;;5052419;28;20029;-60
2023/09/28 04:02:31;;;;;;;28.48;6.05;;;33.30;29.20;;;;;;5051267;28;20018;-60
2023/09/28 04:04:57;;;;;;;33.83;5.60;;;33.20;29.40;;;;;;5046491;28;20033;-60
2023/09/28 04:07:24;;;;;;;28.70;5.35;;;33.00;30.00;;;;;;5051642;28;20473;-60
2023/09/28 04:09:51;;;;;;;28.70;5.20;;;32.80;29.50;;;;;;5048358;28;20021;-62
2023/09/28 04:12:17;;;;;;;24.25;7.85;;;32.80;29.50;;;;;;5048105;28;20035;-61
2023/09/28 04:14:44;;;;;;;21.13;7.28;;;32.80;29.10;;;;;;5046727;28;20013;-60
2023/09/28 04:17:10;;;;;;;19.45;6.47;;;32.70;29.50;;;;;;5047521;28;20036;-59
2023/09/28 04:19:37;;;;;;;24.63;6.45;;;32.60;30.00;;;;;;5048375;28;20021;-63
2023/09/28 04:22:03;;;;;;;29.58;6.82;;;32.60;29.50;;;;;;5047724;28;20016;-59
2023/09/28 04:24:30;;;;;;;27.58;6.88;;;32.50;29.90;;;;;;5047570;28;20009;-62
2023/09/28 04:26:58;;;;;;;34.58;7.45;;;32.40;29.90;;;;;;5049804;28;20028;-61
2023/09/28 04:29:27;;;;;;;41.03;7.70;;;32.40;30.00;;;;;;5047620;28;20108;-64
2023/09/28 04:31:54;;;;;;;45.22;7.63;;;32.40;30.60;;;;;;5046811;28;20017;-60
2023/09/28 04:34:21;;;;;;;34.83;7.30;;;32.30;30.40;;;;;;5046901;28;20043;-59
2023/09/28 04:36:49;;;;;;;38.30;7.35;;;32.30;30.80;;;;;;5048425;28;20017;-63
2023/09/28 04:39:17;;;;;;;40.50;8.45;;;32.20;31.20;;;;;;5045813;28;20095;-61
2023/09/28 04:41:44;;;;;;;35.95;7.88;;;32.10;31.60;;;;;;5054192;28;20100;-59
2023/09/28 04:44:11;;;;;;;39.80;7.85;;;32.00;31.60;;;;;;5051151;28;20009;-62
2023/09/28 04:46:37;;;;;;;46.25;7.63;;;31.80;31.10;;;;;;5047695;28;20027;-62
2023/09/28 04:49:04;;;;;;;36.83;8.05;;;31.70;32.10;;;;;;5047710;28;20062;-59
2023/09/28 04:51:30;;;;;;;54.90;8.07;;;31.70;32.90;;;;;;5046846;28;20319;-62
2023/09/28 04:53:57;;;;;;;60.50;8.57;;;31.60;32.90;;;;;;5044806;28;20059;-63
2023/09/28 04:56:24;;;;;;;48.53;8.65;;;31.70;32.60;;;;;;5049676;28;20469;-63
2023/09/28 04:58:50;;;;;;;54.30;9.02;;;31.80;32.60;;;;;;5048128;28;20063;-63
2023/09/28 05:01:17;;;;;;;71.75;8.55;;;31.80;32.60;;;;;;5047126;28;20009;-62
2023/09/28 05:03:43;;;;;;;74.60;8.25;;;31.80;33.30;;;;;;5051097;28;20067;-55
2023/09/28 05:06:10;;;;;;;70.75;9.32;;;31.70;34.20;;;;;;5047524;28;20016;-60
2023/09/28 05:08:36;;;;;;;101.70;10.43;;;31.60;34.10;;;;;;5051326;28;20510;-66
2023/09/28 05:11:03;;;;;;;153.38;14.55;;;31.50;34.70;;;;;;5050202;28;20024;-63
2023/09/28 05:13:30;;;;;;;68.63;8.98;;;31.50;34.70;;;;;;5055172;28;20052;-63
2023/09/28 05:15:57;;;;;;;60.53;7.43;;;31.40;34.50;;;;;;5054792;28;20013;-61
2023/09/28 05:18:23;;;;;;;68.38;8.48;;;31.40;34.60;;;;;;5050162;28;20067;-62
2023/09/28 05:20:50;;;;;;;47.17;6.82;;;31.30;35.10;;;;;;5048189;28;20021;-65
2023/09/28 05:23:17;;;;;;;62.05;7.85;;;31.10;35.70;;;;;;5046215;28;20016;-65
2023/09/28 05:25:43;;;;;;;44.05;6.97;;;31.20;36.20;;;;;;5048622;28;20012;-62
2023/09/28 05:28:10;;;;;;;40.33;6.25;;;31.10;36.90;;;;;;5054207;28;20009;-65
2023/09/28 05:30:36;;;;;;;48.03;7.45;;;30.90;37.00;;;;;;5045585;28;20108;-64
2023/09/28 05:33:03;;;;;;;36.03;6.38;;;30.80;36.60;;;;;;5049505;28;20071;-64
2023/09/28 05:35:30;;;;;;;40.53;6.28;;;30.70;37.20;;;;;;5048381;28;20124;-64
2023/09/28 05:37:57;;;;;;;41.03;6.40;;;30.50;36.60;;;;;;5046801;28;20032;-64
2023/09/28 05:40:23;;;;;;;46.10;6.50;;;30.30;37.50;;;;;;5046492;28;20039;-63
2023/09/28 05:42:50;;;;;;;39.95;6.18;;;30.30;37.40;;;;;;5031235;28;20469;-64
2023/09/28 05:45:17;;;;;;;43.58;6.60;;;30.30;37.40;;;;;;5048561;28;20033;-64
2023/09/28 05:47:43;;;;;;;28.17;6.28;;;30.30;37.80;;;;;;5047176;28;20100;-61
2023/09/28 05:50:12;;;;;;;40.35;6.32;;;30.40;38.80;;;;;;5046438;28;20028;-63
2023/09/28 05:52:40;;;;;;;37.05;6.00;;;30.50;38.40;;;;;;5049870;28;20136;-65
2023/09/28 05:55:07;;;;;;;29.35;5.63;;;30.40;38.30;;;;;;5053314;28;20012;-63
2023/09/28 05:57:37;;;;;;;23.52;5.18;;;30.40;38.50;;;;;;5046859;28;20061;-63
2023/09/28 06:00:08;;;;;;;25.35;5.78;;;30.20;38.30;;;;;;5044831;28;20048;-63
2023/09/28 06:02:36;;;;;;;37.03;6.15;;;30.20;37.80;;;;;;5051486;28;20492;-65
2023/09/28 06:05:02;;;;;;;32.92;5.18;;;30.10;38.20;;;;;;5046619;28;20182;-64
2023/09/28 06:07:29;;;;;;;25.63;5.20;;;30.20;38.10;;;;;;5052383;28;20020;-63
2023/09/28 06:09:55;;;;;;;34.58;5.60;;;30.10;39.50;;;;;;5046617;28;20017;-63
2023/09/28 06:12:22;;;;;;;34.40;4.97;;;30.10;38.20;;;;;;5047219;28;20049;-64
2023/09/28 06:14:48;;;;;;;30.13;5.80;;;30.10;38.90;;;;;;5048366;28;20027;-63
2023/09/28 06:17:16;;;;;;;42.85;6.55;;;29.90;39.10;;;;;;5047114;28;20017;-65
2023/09/28 06:19:43;;;;;;;33.40;6.00;;;29.90;38.70;;;;;;5049067;28;20091;-63
2023/09/28 06:22:09;;;;;;;33.08;5.55;;;29.90;39.20;;;;;;5044436;28;20020;-62
2023/09/28 06:24:38;;;;;;;40.35;5.90;;;29.90;40.60;;;;;;5046544;28;20024;-60
2023/09/28 06:27:05;;;;;;;36.60;5.43;;;29.80;41.10;;;;;;5046393;28;20104;-61
2023/09/28 06:29:32;;;;;;;46.10;5.95;;;29.70;40.30;;;;;;5048026;28;20020;-61
2023/09/28 06:32:00;;;;;;;25.05;6.00;;;29.60;39.60;;;;;;5050274;28;20527;-62
2023/09/28 06:34:26;;;;;;;35.60;5.90;;;29.50;39.00;;;;;;5051806;28;20031;-62
2023/09/28 06:36:53;;;;;;;40.88;6.90;;;29.40;40.10;;;;;;5049763;28;20048;-61
2023/09/28 06:39:19;;;;;;;36.35;6.60;;;29.40;39.70;;;;;;5049818;28;20021;-62
2023/09/28 06:41:46;;;;;;;32.42;5.50;;;29.40;40.40;;;;;;5048909;28;20505;-62
2023/09/28 06:44:12;;;;;;;35.75;6.75;;;29.40;40.40;;;;;;5049106;28;20021;-62
2023/09/28 06:46:39;;;;;;;33.25;6.25;;;29.30;40.40;;;;;;5049807;28;20020;-61
2023/09/28 06:49:08;;;;;;;41.60;6.30;;;29.20;40.10;;;;;;5048388;28;20024;-62
2023/09/28 06:51:34;;;;;;;42.80;8.20;;;28.90;39.80;;;;;;5049422;28;20005;-62
2023/09/28 06:54:01;;;;;;;33.00;6.18;;;28.90;40.20;;;;;;5051786;28;20063;-63
2023/09/28 06:56:27;;;;;;;36.90;6.82;;;29.00;38.80;;;;;;5049547;28;20043;-61
2023/09/28 06:58:54;;;;;;;50.53;6.22;;;29.00;39.80;;;;;;5056763;28;20088;-61
2023/09/28 07:01:21;;;;;;;23.27;5.45;;;28.90;38.20;;;;;;5049320;28;20045;-62
2023/09/28 07:03:52;;;;;;;39.85;6.00;;;28.80;38.00;;;;;;5048162;28;20090;-62
2023/09/28 07:06:24;;;;;;;37.42;5.97;;;28.80;37.30;;;;;;5048702;28;20163;-61
2023/09/28 07:08:52;;;;;;;37.17;5.85;;;28.90;36.40;;;;;;5050245;28;20017;-61
2023/09/28 07:11:19;;;;;;;40.13;6.55;;;28.90;35.60;;;;;;5030840;28;20392;-62
2023/09/28 07:13:46;;;;;;;37.40;5.43;;;29.00;35.20;;;;;;5046266;28;20035;-60
2023/09/28 07:16:12;;;;;;;37.38;5.97;;;29.00;34.30;;;;;;5051600;28;20017;-61
2023/09/28 07:18:39;;;;;;;41.22;5.47;;;29.00;34.10;;;;;;5048229;28;20040;-62
2023/09/28 07:21:05;;;;;;;31.63;5.63;;;29.00;32.20;;;;;;5049487;28;20056;-61
2023/09/28 07:23:32;;;;;;;33.22;5.03;;;29.00;32.30;;;;;;5048429;28;20100;-61
2023/09/28 07:26:00;;;;;;;28.05;5.10;;;29.00;31.30;;;;;;5048665;28;20100;-61
2023/09/28 07:28:27;;;;;;;42.75;5.75;;;29.00;31.00;;;;;;5047598;28;20082;-61
2023/09/28 07:30:53;;;;;;;21.00;5.00;;;29.00;30.80;;;;;;5049334;28;20021;-61
2023/09/28 07:33:20;;;;;;;25.92;5.05;;;28.90;31.80;;;;;;5052742;28;20369;-63
2023/09/28 07:35:48;;;;;;;18.17;3.67;;;29.00;31.20;;;;;;5047565;28;20423;-60
2023/09/28 07:38:15;;;;;;;18.85;3.92;;;29.00;29.40;;;;;;5048379;28;20017;-63
2023/09/28 07:40:41;;;;;;;16.00;4.55;;;29.00;29.60;;;;;;5046613;28;20102;-61
2023/09/28 07:43:08;;;;;;;14.25;3.80;;;29.00;29.60;;;;;;5049974;28;20037;-61
2023/09/28 07:45:35;;;;;;;13.90;4.00;;;29.00;29.10;;;;;;5052888;28;20062;-60
2023/09/28 07:48:02;;;;;;;14.27;3.38;;;29.00;28.70;;;;;;5048750;28;20125;-61
2023/09/28 07:50:28;;;;;;;10.05;3.72;;;29.10;28.40;;;;;;5047602;28;20399;-62
2023/09/28 07:52:55;;;;;;;11.00;3.20;;;29.10;27.90;;;;;;5048230;28;20373;-63
2023/09/28 07:55:21;;;;;;;9.60;3.15;;;29.10;28.10;;;;;;5047520;28;20139;-60
2023/09/28 07:57:48;;;;;;;9.43;3.08;;;29.10;28.10;;;;;;5049335;28;20100;-61
2023/09/28 08:00:17;;;;;;;8.38;3.50;;;29.00;28.60;;;;;;5048975;28;20029;-62
2023/09/28 08:02:44;;;;;;;5.53;3.13;;;29.00;28.20;;;;;;5053157;28;20035;-63
2023/09/28 08:05:12;;;;;;;7.93;3.08;;;29.00;27.90;;;;;;5048716;28;20032;-62
2023/09/28 08:07:39;;;;;;;5.05;2.80;;;29.00;28.30;;;;;;5048590;28;20028;-61
2023/09/28 08:10:07;;;;;;;8.20;2.92;;;28.80;28.40;;;;;;5047936;28;20092;-61
2023/09/28 08:12:33;;;;;;;10.07;2.88;;;28.90;28.30;;;;;;5048496;28;20044;-64
2023/09/28 08:15:00;;;;;;;8.95;3.20;;;28.80;28.60;;;;;;5044273;28;20154;-62
2023/09/28 08:17:26;;;;;;;9.50;3.30;;;28.70;29.10;;;;;;5048276;28;20020;-61
2023/09/28 08:19:53;;;;;;;7.07;3.03;;;28.60;28.80;;;;;;5051176;28;20029;-61
2023/09/28 08:22:19;;;;;;;10.02;3.65;;;28.60;29.10;;;;;;5049912;28;20020;-62
2023/09/28 08:24:46;;;;;;;11.43;3.50;;;28.70;28.70;;;;;;5048198;28;20346;-60
2023/09/28 08:27:12;;;;;;;7.20;3.67;;;28.60;28.60;;;;;;5048451;28;20590;-61
2023/09/28 08:29:39;;;;;;;16.85;3.20;;;28.60;28.80;;;;;;5047815;28;20133;-62
2023/09/28 08:32:05;;;;;;;20.23;3.60;;;28.60;29.20;;;;;;5048330;28;20107;-60
2023/09/28 08:34:34;;;;;;;21.73;3.97;;;28.50;29.30;;;;;;5048318;28;20448;-61
2023/09/28 08:37:03;;;;;;;20.02;4.03;;;28.40;29.50;;;;;;5047634;28;20032;-61
2023/09/28 08:39:32;;;;;;;16.38;4.45;;;28.30;31.40;;;;;;5047308;28;20116;-62
2023/09/28 08:42:02;;;;;;;17.02;4.70;;;28.20;31.60;;;;;;5047763;28;20016;-62
2023/09/28 08:44:34;;;;;;;22.80;4.97;;;28.00;30.70;;;;;;5047519;28;20337;-62
2023/09/28 08:47:00;;;;;;;15.00;4.40;;;28.00;31.00;;;;;;5046745;28;20052;-60
2023/09/28 08:49:29;;;;;;;19.92;4.80;;;28.00;32.00;;;;;;5047280;28;20381;-63
2023/09/28 08:51:56;;;;;;;22.10;5.40;;;28.00;32.10;;;;;;5047980;28;20032;-62
2023/09/28 08:54:27;;;;;;;20.42;4.93;;;28.00;32.60;;;;;;5047859;28;20020;-62
2023/09/28 08:56:57;;;;;;;17.75;4.82;;;28.00;33.40;;;;;;5049353;28;20017;-61
2023/09/28 08:59:28;;;;;;;23.08;5.15;;;28.00;31.60;;;;;;5046376;28;20067;-61
2023/09/28 09:01:57;;;;;;;26.23;4.80;;;27.70;31.90;;;;;;5050783;28;20099;-62
2023/09/28 09:04:24;;;;;;;25.13;5.30;;;27.70;33.10;;;;;;5046753;28;20098;-62
2023/09/28 09:06:52;;;;;;;28.75;5.13;;;27.60;33.50;;;;;;5048024;28;20009;-63
2023/09/28 09:09:20;;;;;;;22.80;6.95;;;27.50;34.60;;;;;;5047322;28;20025;-62
2023/09/28 09:11:52;;;;;;;28.52;6.72;;;27.40;35.80;;;;;;5046618;28;20084;-62
2023/09/28 09:14:20;;;;;;;28.83;5.82;;;27.40;35.10;;;;;;5045825;28;20013;-61
2023/09/28 09:16:48;;;;;;;20.85;5.28;;;27.40;33.50;;;;;;5047538;28;20021;-61
2023/09/28 09:19:15;;;;;;;21.55;5.53;;;27.40;33.10;;;;;;5045904;28;20015;-64
2023/09/28 09:21:44;;;;;;;32.78;6.72;;;27.30;33.80;;;;;;5047106;28;20351;-63
2023/09/28 09:24:19;;;;;;;29.20;5.47;;;27.20;33.30;;;;;;5046592;28;20021;-63
2023/09/28 09:26:47;;;;;;;22.85;6.00;;;27.10;33.70;;;;;;5046213;28;20071;-63
2023/09/28 09:29:15;;;;;;;20.77;6.38;;;27.10;34.40;;;;;;5049802;28;20481;-61
2023/09/28 09:31:49;;;;;;;22.13;6.18;;;27.10;35.30;;;;;;5047469;28;20043;-62
2023/09/28 09:34:18;;;;;;;30.40;5.80;;;27.00;35.90;;;;;;5050905;28;20046;-63
2023/09/28 09:37:03;;;;;;;19.83;6.38;;;27.00;35.10;;;;;;5047164;28;20017;-62
2023/09/28 09:39:30;;;;;;;24.90;5.75;;;26.90;34.90;;;;;;5046320;28;20136;-61
2023/09/28 09:42:00;;;;;;;24.00;6.45;;;26.90;35.20;;;;;;5045784;28;20536;-61
2023/09/28 09:44:29;;;;;;;49.25;9.38;;;26.90;35.50;;;;;;5049928;28;20017;-61
2023/09/28 09:46:57;;;;;;;87.22;13.25;;;26.90;35.80;;;;;;5047821;28;20028;-62
2023/09/28 09:49:24;;;;;;;44.22;12.43;;;26.80;36.60;;;;;;5048252;28;20021;-64
2023/09/28 09:51:51;;;;;;;44.78;14.20;;;26.90;37.00;;;;;;5050571;28;20039;-63
2023/09/28 09:54:20;;;;;;;38.30;11.00;;;26.70;38.30;;;;;;5045946;28;20058;-65
2023/09/28 09:56:49;;;;;;;36.28;12.02;;;26.70;37.90;;;;;;5047176;28;20492;-62
2023/09/28 09:59:18;;;;;;;40.75;11.48;;;26.60;39.40;;;;;;5049350;28;20039;-63
2023/09/28 10:01:50;;;;;;;34.83;10.80;;;26.50;38.30;;;;;;5045868;28;20071;-62
2023/09/28 10:04:18;;;;;;;32.95;10.52;;;26.50;39.70;;;;;;5045477;28;20515;-62
2023/09/28 10:07:00;;;;;;;39.45;11.98;;;26.20;39.60;;;;;;5045991;28;20047;-61
2023/09/28 10:09:26;;;;;;;53.75;13.68;;;26.20;40.30;;;;;;5047922;28;20530;-63
2023/09/28 10:11:54;;;;;;;59.65;13.77;;;26.30;40.90;;;;;;5046940;28;20061;-61
2023/09/28 10:14:21;;;;;;;58.97;14.57;;;26.30;43.20;;;;;;5048193;28;20043;-63
2023/09/28 10:16:53;;;;;;;51.70;13.93;;;26.20;42.90;;;;;;5048846;28;20020;-63
2023/09/28 10:19:23;;;;;;;59.35;14.27;;;26.10;43.20;;;;;;5046358;28;20075;-63
2023/09/28 10:21:51;;;;;;;59.70;13.65;;;26.00;43.60;;;;;;5045755;28;20036;-60
2023/09/28 10:24:20;;;;;;;57.88;14.23;;;25.90;42.50;;;;;;5045776;28;20016;-62
2023/09/28 10:26:54;;;;;;;62.03;15.00;;;25.90;42.80;;;;;;5045413;28;21272;-61
2023/09/28 10:29:31;;;;;;;50.70;14.18;;;25.90;43.30;;;;;;5046115;28;20034;-62
2023/09/28 10:31:58;;;;;;;78.93;15.88;;;25.90;45.60;;;;;;5045515;28;20449;-60
2023/09/28 10:34:30;;;;;;;69.15;17.67;;;25.80;44.40;;;;;;5044554;28;20105;-62
2023/09/28 10:37:13;;;;;;;67.90;17.30;;;25.70;43.90;;;;;;5049898;28;20046;-63
2023/09/28 10:39:41;;;;;;;69.95;17.35;;;25.60;44.40;;;;;;5044616;28;20066;-61
2023/09/28 10:42:11;;;;;;;72.10;19.33;;;25.60;46.70;;;;;;5044975;28;20040;-61
2023/09/28 10:44:53;;;;;;;80.75;19.90;;;25.50;45.40;;;;;;5050304;28;20071;-61
2023/09/28 10:47:20;;;;;;;72.10;19.65;;;25.50;45.50;;;;;;5046225;28;20055;-63
2023/09/28 10:49:48;;;;;;;84.15;22.60;;;25.40;46.40;;;;;;5047718;28;20041;-63
2023/09/28 10:52:16;;;;;;;86.05;23.15;;;25.30;46.30;;;;;;5046565;28;20045;-63
2023/09/28 10:54:44;;;;;;;71.15;21.48;;;25.40;46.40;;;;;;5046032;28;20049;-62
2023/09/28 10:57:11;;;;;;;80.97;24.45;;;25.30;47.00;;;;;;5047161;28;20036;-61
2023/09/28 10:59:41;;;;;;;94.68;26.17;;;25.40;48.10;;;;;;5051844;28;20547;-61
2023/09/28 11:02:08;;;;;;;96.50;33.90;;;25.40;48.30;;;;;;5045870;28;20054;-61
2023/09/28 11:04:39;;;;;;;102.13;31.17;;;25.30;51.20;;;;;;5045938;28;20108;-62
2023/09/28 11:07:10;;;;;;;100.65;33.17;;;25.20;53.30;;;;;;5046227;28;20131;-63
2023/09/28 11:09:40;;;;;;;102.45;34.08;;;25.20;53.20;;;;;;5045592;28;20078;-61
2023/09/28 11:12:09;;;;;;;96.15;35.22;;;25.20;53.50;;;;;;5045705;28;20128;-63
2023/09/28 11:14:40;;;;;;;90.97;31.90;;;25.20;53.70;;;;;;5047343;28;20046;-63
2023/09/28 11:17:09;;;;;;;94.57;32.50;;;25.10;54.40;;;;;;5050015;28;20049;-62
2023/09/28 11:19:36;;;;;;;85.10;31.23;;;25.00;55.60;;;;;;5060683;28;20111;-62
2023/09/28 11:22:02;;;;;;;87.75;31.08;;;25.00;57.60;;;;;;5048685;28;20042;-62
2023/09/28 11:24:29;;;;;;;73.18;28.95;;;25.10;57.30;;;;;;5048728;28;20046;-61
2023/09/28 11:26:56;;;;;;;73.68;30.13;;;25.00;57.60;;;;;;5050691;28;20064;-63
2023/09/28 11:29:22;;;;;;;76.80;30.25;;;24.90;57.80;;;;;;5048688;28;20044;-61
2023/09/28 11:31:50;;;;;;;85.63;30.25;;;24.90;59.10;;;;;;5054342;28;20045;-62
2023/09/28 11:34:37;;;;;;;71.95;28.50;;;24.90;58.80;;;;;;5048286;28;20135;-62
2023/09/28 11:37:09;;;;;;;68.18;27.55;;;24.90;59.90;;;;;;5048102;28;20412;-62
2023/09/28 11:39:38;;;;;;;70.20;26.30;;;24.80;59.20;;;;;;5048342;28;20515;-62
2023/09/28 11:42:07;;;;;;;75.03;27.25;;;24.70;60.20;;;;;;5048210;28;20038;-62
2023/09/28 11:44:34;;;;;;;86.20;28.77;;;24.60;59.70;;;;;;5047794;28;20048;-63
2023/09/28 11:47:01;;;;;;;72.88;28.42;;;24.60;59.80;;;;;;5050272;28;20051;-62
2023/09/28 11:49:28;;;;;;;72.57;28.42;;;24.60;59.90;;;;;;5048503;28;20050;-62
2023/09/28 11:51:56;;;;;;;86.65;28.75;;;24.50;61.00;;;;;;5048450;28;20047;-62
2023/09/28 11:54:23;;;;;;;84.13;30.80;;;24.40;61.90;;;;;;5049729;28;20115;-62
2023/09/28 11:56:50;;;;;;;74.13;29.67;;;24.50;61.20;;;;;;5056850;28;20522;-61
2023/09/28 11:59:17;;;;;;;92.45;31.77;;;24.40;62.10;;;;;;5049350;28;20058;-62
2023/09/28 12:01:45;;;;;;;96.72;32.25;;;24.50;60.80;;;;;;5047732;28;20054;-62
2023/09/28 12:04:11;;;;;;;81.93;31.88;;;24.60;60.30;;;;;;5047675;28;20058;-64
2023/09/28 12:06:39;;;;;;;96.50;34.05;;;24.60;60.20;;;;;;5053719;28;20051;-61
2023/09/28 12:09:06;;;;;;;71.32;30.67;;;24.70;60.20;;;;;;5048263;28;20033;-63
2023/09/28 12:11:37;;;;;;;85.47;32.53;;;24.70;60.50;;;;;;5048156;28;20072;-63
2023/09/28 12:14:04;;;;;;;72.90;31.27;;;24.60;60.70;;;;;;5051794;28;20053;-62
2023/09/28 12:16:30;;;;;;;79.43;34.40;;;24.50;61.30;;;;;;5047721;28;20052;-61
2023/09/28 12:18:57;;;;;;;61.47;31.13;;;24.40;62.50;;;;;;5050050;28;20098;-62
2023/09/28 12:21:23;;;;;;;92.90;34.38;;;24.40;61.60;;;;;;5048032;28;20068;-62
2023/09/28 12:23:50;;;;;;;83.55;33.40;;;24.40;61.80;;;;;;5045772;28;20332;-62
2023/09/28 12:26:17;;;;;;;104.20;35.38;;;24.50;62.10;;;;;;5048254;28;20418;-60
2023/09/28 12:28:44;;;;;;;83.72;32.22;;;24.50;61.70;;;;;;5047991;28;21355;-63
2023/09/28 12:31:12;;;;;;;86.65;33.60;;;24.60;61.00;;;;;;5046690;28;20045;-61
2023/09/28 12:33:38;;;;;;;89.22;31.75;;;24.50;60.70;;;;;;5046335;28;20415;-62
2023/09/28 12:36:05;;;;;;;81.60;32.55;;;24.70;60.40;;;;;;5053185;28;20179;-62
2023/09/28 12:38:32;;;;;;;83.47;31.83;;;24.70;60.10;;;;;;5047019;28;20072;-62
2023/09/28 12:40:59;;;;;;;83.47;31.75;;;24.70;60.10;;;;;;5047991;28;20068;-61
2023/09/28 12:43:26;;;;;;;96.82;32.15;;;24.70;61.30;;;;;;5047418;28;20058;-63
2023/09/28 12:45:53;;;;;;;87.68;30.77;;;24.70;60.80;;;;;;5047257;28;20051;-60
2023/09/28 12:48:20;;;;;;;92.88;32.55;;;24.70;61.20;;;;;;5052253;28;20129;-63